If you wish to contribute or participate in the discussions about articles you are invited to join SKYbrary as a registered user

 Actions

Yokota Air Base

From SKYbrary Wiki

RJTY
Airport
ICAO: RJTY – IATA: OKO
Summary
Name Yokota Air Base
Region Asia and Pacific
Territory Japan JP.gif
Location Fussa, Kantō
Serving Yokota
Elevation 141.122 m
463 ft
463 ft141.122 m
Type large airport
Coordinates 35° 44' 54.57" N, 139° 20' 54.54" E
Runways
Designator Length Width Surface ROPS
18/36 3353 m11,000.656 ft
61 m200.131 ft
CON yes/yes


METAR
Observation RJTY 250956Z AUTO 19008KT 10SM CLR 22/17 A3008 RMK AO2 SLP186 T02150169 FZRANO $
Station Yokota Ab
Date/Time 25 June 2019 09:56:00
Wind direction 190°
Wind speed 08 kts
Lowest cloud amount n/a
Temperature 21.5°C
Dew point 16.9°C
Humidity 75%
QNH hPa
Weather condition n/a

Yokota Air Base is a United States Air Force base in the city of Fussa, in the Western Tokyo area, Japan.

Climatology

Humid Sub-tropical climate (Köppen climate classification Cfa)

Maps

Terrain

Loading map...

Airport Layout

Loading map...


Accidents & Serious Incidents at or in vicinity of RJTY

None on SKYbrary